METAR Data
IDs: Format: Raw Decoded Include TAF

Data at: 0223 UTC 24 Mar 2019

Region: TOP
KATL 240152Z 02004KT 10SM BKN200 BKN250 18/M06 A3025 RMK AO2 SLP241 T01781061

KBOS 240154Z 28016G22KT 10SM CLR 04/M08 A2991 RMK AO2 SLP129 T00391078

KBWI 240154Z 28005KT 10SM CLR 04/M07 A3023 RMK AO2 SLP235 T00391072

KCLE 240151Z 00000KT 10SM CLR 03/M07 A3029 RMK AO2 SLP265 T00281067

KCLT 240152Z 00000KT 10SM SCT250 13/M07 A3027 RMK AO2 SLP249 T01281067

KCVG 240152Z 14003KT 10SM SCT250 07/M08 A3027 RMK AO2 SLP252 T00721078

KDCA 240152Z 29006KT 10SM CLR 09/M09 A3026 RMK AO2 SLP245 T00941094 $

KDEN 240153Z 00000KT 10SM SCT080 BKN140 04/02 A3001 RMK AO2 SLP155 T00440017

KDFW 240153Z 17015KT 10SM FEW040 BKN250 19/14 A2996 RMK AO2 SLP141 T01940144

KDTW 240153Z 20006KT 10SM FEW250 04/M08 A3024 RMK AO2 SLP248 T00391078

KEWR 240151Z 30008KT 10SM CLR 06/M13 A3012 RMK AO2 SLP200 T00611128

KFLL 240153Z 09009KT 10SM FEW041 22/12 A3020 RMK AO2 SLP226 T02220117

KIAD 240152Z 29003KT 10SM CLR 03/M07 A3025 RMK AO2 SLP245 T00331067

KIAH 240153Z 15008KT 10SM FEW028 FEW080 SCT250 18/16 A3011 RMK AO2 SLP194 T01830156

KJFK 240151Z 30016G22KT 10SM CLR 06/M12 A3012 RMK AO2 PK WND 29028/0056 SLP199 T00611117

KLAS 240156Z 21009KT 10SM FEW100 FEW250 20/M02 A2991 RMK AO2 SLP118 T02001017

KLAX 240153Z 26012KT 10SM SCT011 BKN049 15/12 A3013 RMK AO2 SLP201 T01500117

KLGA 240151Z 30016G21KT 10SM CLR 06/M11 A3011 RMK AO2 SLP195 T00611106

KMCO 240153Z 05008KT 10SM SCT300 17/11 A3024 RMK AO2 SLP238 T01670111

KMDW 240153Z 12006KT 10SM SCT180 BKN250 07/M03 A3023 RMK AO2 SLP244 T00671033

KMEM 240154Z VRB03KT 10SM FEW090 BKN150 BKN250 17/02 A3016 RMK AO2 SLP211 T01670017 $

KMIA 240153Z 10006KT 10SM CLR 21/12 A3021 RMK AO2 SLP230 T02110117

KMSP 240153Z 17004KT 10SM BKN250 06/M01 A3013 RMK AO2 SLP209 T00611011

KORD 240151Z 17004KT 10SM SCT200 BKN250 08/M03 A3021 RMK AO2 SLP236 T00781028

KPDX 240153Z 30006KT 10SM BKN060 BKN250 13/04 A3018 RMK AO2 SLP221 T01330039

KPHL 240154Z 28010KT 10SM CLR 08/M11 A3017 RMK AO2 SLP217 T00831111 /

KPHX 240151Z 28004KT 10SM FEW080 BKN250 BKN290 23/M02 A2997 RMK AO2 SLP139 T02331022

KPIT 240151Z 00000KT 10SM CLR 02/M08 A3027 RMK AO2 SLP271 T00171078 $

KSAN 240151Z 30009KT 10SM SCT016 BKN200 16/11 A3016 RMK AO2 SLP212 T01610106

KSEA 240153Z 20005KT 10SM FEW032 SCT250 13/03 A3017 RMK AO2 SLP225 T01330028

KSFO 240156Z 27013KT 10SM FEW025 FEW033 13/07 A3020 RMK AO2 SLP226 T01280067

KSLC 240154Z 28010KT 10SM SCT070 BKN090 BKN110 10/04 A3000 RMK AO2 SLP143 VCSH T01000039

KSTL 240151Z 18007KT 9SM -RA BKN065 OVC075 11/06 A3020 RMK AO2 SLP230 P0000 T01060056

KTPA 240153Z 36003KT 10SM CLR 18/09 A3021 RMK AO2 SLP230 T01780089